sensor_id;sensor_type;location;lat;lon;timestamp;temperature;humidity
1996;DHT22;38556;47.068;15.408;2022-12-29T00:00:20;3.30;99.90
1996;DHT22;38556;47.068;15.408;2022-12-29T00:02:47;3.10;99.90
1996;DHT22;38556;47.068;15.408;2022-12-29T00:05:15;3.10;99.90
1996;DHT22;38556;47.068;15.408;2022-12-29T00:07:43;3.00;99.90
1996;DHT22;38556;47.068;15.408;2022-12-29T00:10:10;3.00;99.90
1996;DHT22;38556;47.068;15.408;2022-12-29T00:12:37;3.00;99.90
1996;DHT22;38556;47.068;15.408;2022-12-29T00:15:22;3.10;99.90
1996;DHT22;38556;47.068;15.408;2022-12-29T00:18:04;2.90;99.90
1996;DHT22;38556;47.068;15.408;2022-12-29T00:20:35;2.90;99.90
1996;DHT22;38556;47.068;15.408;2022-12-29T00:23:20;2.90;99.90
1996;DHT22;38556;47.068;15.408;2022-12-29T00:26:12;2.90;99.90
1996;DHT22;38556;47.068;15.408;2022-12-29T00:28:58;2.90;99.90
1996;DHT22;38556;47.068;15.408;2022-12-29T00:31:43;2.80;99.90
1996;DHT22;38556;47.068;15.408;2022-12-29T00:34:27;2.80;99.90
1996;DHT22;38556;47.068;15.408;2022-12-29T00:37:16;2.80;99.90
1996;DHT22;38556;47.068;15.408;2022-12-29T00:40:04;2.80;99.90
1996;DHT22;38556;47.068;15.408;2022-12-29T00:42:46;2.80;99.90
1996;DHT22;38556;47.068;15.408;2022-12-29T00:45:30;3.00;99.90
1996;DHT22;38556;47.068;15.408;2022-12-29T00:47:58;2.70;99.90
1996;DHT22;38556;47.068;15.408;2022-12-29T00:50:25;2.80;99.90
1996;DHT22;38556;47.068;15.408;2022-12-29T00:52:53;2.70;99.90
1996;DHT22;38556;47.068;15.408;2022-12-29T00:55:20;2.70;99.90
1996;DHT22;38556;47.068;15.408;2022-12-29T00:57:47;2.60;99.90
1996;DHT22;38556;47.068;15.408;2022-12-29T01:00:15;2.60;99.90
1996;DHT22;38556;47.068;15.408;2022-12-29T01:02:42;2.60;99.90
1996;DHT22;38556;47.068;15.408;2022-12-29T01:05:09;2.60;99.90
1996;DHT22;38556;47.068;15.408;2022-12-29T01:07:37;2.50;99.90
1996;DHT22;38556;47.068;15.408;2022-12-29T01:10:06;2.50;99.90
1996;DHT22;38556;47.068;15.408;2022-12-29T01:12:36;2.50;99.90
1996;DHT22;38556;47.068;15.408;2022-12-29T01:15:12;2.50;99.90
1996;DHT22;38556;47.068;15.408;2022-12-29T01:17:40;2.50;99.90
1996;DHT22;38556;47.068;15.408;2022-12-29T01:20:07;2.50;99.90
1996;DHT22;38556;47.068;15.408;2022-12-29T01:22:35;2.50;99.90
1996;DHT22;38556;47.068;15.408;2022-12-29T01:25:02;2.50;99.90
1996;DHT22;38556;47.068;15.408;2022-12-29T01:27:31;2.50;99.90
1996;DHT22;38556;47.068;15.408;2022-12-29T01:29:59;2.50;99.90
1996;DHT22;38556;47.068;15.408;2022-12-29T01:32:26;2.50;99.90
1996;DHT22;38556;47.068;15.408;2022-12-29T01:34:54;2.40;99.90
1996;DHT22;38556;47.068;15.408;2022-12-29T01:37:21;2.40;99.90
1996;DHT22;38556;47.068;15.408;2022-12-29T01:39:48;2.40;99.90
1996;DHT22;38556;47.068;15.408;2022-12-29T01:42:18;2.40;99.90
1996;DHT22;38556;47.068;15.408;2022-12-29T01:44:53;2.40;99.90
1996;DHT22;38556;47.068;15.408;2022-12-29T01:47:34;2.40;99.90
1996;DHT22;38556;47.068;15.408;2022-12-29T01:50:06;2.40;99.90
1996;DHT22;38556;47.068;15.408;2022-12-29T01:52:40;2.40;99.90
1996;DHT22;38556;47.068;15.408;2022-12-29T01:55:09;2.40;99.90
1996;DHT22;38556;47.068;15.408;2022-12-29T01:57:40;2.30;99.90
1996;DHT22;38556;47.068;15.408;2022-12-29T02:00:13;2.30;99.90
1996;DHT22;38556;47.068;15.408;2022-12-29T02:02:42;2.20;99.90
1996;DHT22;38556;47.068;15.408;2022-12-29T02:05:15;2.20;99.90
1996;DHT22;38556;47.068;15.408;2022-12-29T02:07:45;2.20;99.90
1996;DHT22;38556;47.068;15.408;2022-12-29T02:10:14;2.10;99.90
1996;DHT22;38556;47.068;15.408;2022-12-29T02:12:41;2.10;99.90
1996;DHT22;38556;47.068;15.408;2022-12-29T02:15:11;2.10;99.90
1996;DHT22;38556;47.068;15.408;2022-12-29T02:17:52;2.00;99.90
1996;DHT22;38556;47.068;15.408;2022-12-29T02:20:37;2.00;99.90
1996;DHT22;38556;47.068;15.408;2022-12-29T02:23:42;1.80;99.90
1996;DHT22;38556;47.068;15.408;2022-12-29T02:26:34;1.70;99.90
1996;DHT22;38556;47.068;15.408;2022-12-29T02:29:44;1.80;99.90
1996;DHT22;38556;47.068;15.408;2022-12-29T02:32:28;1.80;99.90
1996;DHT22;38556;47.068;15.408;2022-12-29T02:35:04;1.90;99.90
1996;DHT22;38556;47.068;15.408;2022-12-29T02:37:40;1.90;99.90
1996;DHT22;38556;47.068;15.408;2022-12-29T02:40:19;1.90;99.90
1996;DHT22;38556;47.068;15.408;2022-12-29T02:42:51;1.90;99.90
1996;DHT22;38556;47.068;15.408;2022-12-29T02:45:27;1.90;99.90
1996;DHT22;38556;47.068;15.408;2022-12-29T02:48:05;1.90;99.90
1996;DHT22;38556;47.068;15.408;2022-12-29T02:50:38;2.10;99.90
1996;DHT22;38556;47.068;15.408;2022-12-29T02:53:11;1.90;99.90
1996;DHT22;38556;47.068;15.408;2022-12-29T02:55:38;1.80;99.90
1996;DHT22;38556;47.068;15.408;2022-12-29T02:58:18;1.60;99.90
1996;DHT22;38556;47.068;15.408;2022-12-29T03:00:58;1.60;99.90
1996;DHT22;38556;47.068;15.408;2022-12-29T03:03:40;1.60;99.90
1996;DHT22;38556;47.068;15.408;2022-12-29T03:06:19;1.70;99.90
1996;DHT22;38556;47.068;15.408;2022-12-29T03:08:53;1.70;99.90
1996;DHT22;38556;47.068;15.408;2022-12-29T03:11:24;1.60;99.90
1996;DHT22;38556;47.068;15.408;2022-12-29T03:14:17;1.60;99.90
1996;DHT22;38556;47.068;15.408;2022-12-29T03:17:08;1.50;99.90
1996;DHT22;38556;47.068;15.408;2022-12-29T03:19:43;-2.00;99.90
1996;DHT22;38556;47.068;15.408;2022-12-29T03:22:14;1.60;99.90
1996;DHT22;38556;47.068;15.408;2022-12-29T03:24:59;1.60;99.90
1996;DHT22;38556;47.068;15.408;2022-12-29T03:27:30;1.10;99.90
1996;DHT22;38556;47.068;15.408;2022-12-29T03:30:02;1.10;99.90
1996;DHT22;38556;47.068;15.408;2022-12-29T03:32:33;1.30;99.90
1996;DHT22;38556;47.068;15.408;2022-12-29T03:35:04;1.30;99.90
1996;DHT22;38556;47.068;15.408;2022-12-29T03:37:36;1.40;99.90
1996;DHT22;38556;47.068;15.408;2022-12-29T03:40:07;1.40;99.90
1996;DHT22;38556;47.068;15.408;2022-12-29T03:42:35;1.50;99.90
1996;DHT22;38556;47.068;15.408;2022-12-29T03:45:05;1.50;99.90
1996;DHT22;38556;47.068;15.408;2022-12-29T03:47:33;1.50;99.90
1996;DHT22;38556;47.068;15.408;2022-12-29T03:50:00;1.60;99.90
1996;DHT22;38556;47.068;15.408;2022-12-29T03:52:29;1.40;99.90
1996;DHT22;38556;47.068;15.408;2022-12-29T03:54:56;1.40;99.90
1996;DHT22;38556;47.068;15.408;2022-12-29T03:57:24;1.40;99.90
1996;DHT22;38556;47.068;15.408;2022-12-29T03:59:51;1.40;99.90
1996;DHT22;38556;47.068;15.408;2022-12-29T04:02:18;1.40;99.90
1996;DHT22;38556;47.068;15.408;2022-12-29T04:04:46;1.40;99.90
1996;DHT22;38556;47.068;15.408;2022-12-29T04:07:13;1.40;99.90
1996;DHT22;38556;47.068;15.408;2022-12-29T04:09:42;1.40;99.90
1996;DHT22;38556;47.068;15.408;2022-12-29T04:12:09;1.50;99.90
1996;DHT22;38556;47.068;15.408;2022-12-29T04:14:37;1.40;99.90
1996;DHT22;38556;47.068;15.408;2022-12-29T04:17:04;1.30;99.90
1996;DHT22;38556;47.068;15.408;2022-12-29T04:19:31;1.40;99.90
1996;DHT22;38556;47.068;15.408;2022-12-29T04:21:58;1.40;99.90
1996;DHT22;38556;47.068;15.408;2022-12-29T04:24:26;1.40;99.90
1996;DHT22;38556;47.068;15.408;2022-12-29T04:26:54;1.40;99.90
1996;DHT22;38556;47.068;15.408;2022-12-29T04:29:22;1.20;99.90
1996;DHT22;38556;47.068;15.408;2022-12-29T04:31:49;1.10;99.90
1996;DHT22;38556;47.068;15.408;2022-12-29T04:34:17;0.70;99.90
1996;DHT22;38556;47.068;15.408;2022-12-29T04:36:45;0.60;99.90
1996;DHT22;38556;47.068;15.408;2022-12-29T04:39:12;0.70;99.90
1996;DHT22;38556;47.068;15.408;2022-12-29T04:41:39;0.80;99.90
1996;DHT22;38556;47.068;15.408;2022-12-29T04:44:08;0.90;99.90
1996;DHT22;38556;47.068;15.408;2022-12-29T04:49:03;1.10;99.90
1996;DHT22;38556;47.068;15.408;2022-12-29T04:51:34;1.20;99.90
1996;DHT22;38556;47.068;15.408;2022-12-29T04:54:02;1.40;99.90
1996;DHT22;38556;47.068;15.408;2022-12-29T04:56:29;1.30;99.90
1996;DHT22;38556;47.068;15.408;2022-12-29T04:58:56;1.30;99.90
1996;DHT22;38556;47.068;15.408;2022-12-29T05:01:25;1.30;99.90
1996;DHT22;38556;47.068;15.408;2022-12-29T05:03:52;4.80;99.90
1996;DHT22;38556;47.068;15.408;2022-12-29T05:06:19;1.40;99.90
1996;DHT22;38556;47.068;15.408;2022-12-29T05:08:47;1.40;99.90
1996;DHT22;38556;47.068;15.408;2022-12-29T05:11:14;1.40;99.90
1996;DHT22;38556;47.068;15.408;2022-12-29T05:13:44;1.40;99.90
1996;DHT22;38556;47.068;15.408;2022-12-29T05:16:12;1.40;99.90
1996;DHT22;38556;47.068;15.408;2022-12-29T05:18:40;1.50;99.90
1996;DHT22;38556;47.068;15.408;2022-12-29T05:21:07;1.50;99.90
1996;DHT22;38556;47.068;15.408;2022-12-29T05:23:35;1.40;99.90
1996;DHT22;38556;47.068;15.408;2022-12-29T05:26:02;1.50;99.90
1996;DHT22;38556;47.068;15.408;2022-12-29T05:28:29;1.50;99.90
1996;DHT22;38556;47.068;15.408;2022-12-29T05:30:57;1.40;99.90
1996;DHT22;38556;47.068;15.408;2022-12-29T05:33:24;1.40;99.90
1996;DHT22;38556;47.068;15.408;2022-12-29T05:35:53;1.40;99.90
1996;DHT22;38556;47.068;15.408;2022-12-29T05:38:20;1.30;99.90
1996;DHT22;38556;47.068;15.408;2022-12-29T05:40:47;1.30;99.90
1996;DHT22;38556;47.068;15.408;2022-12-29T05:43:14;1.10;99.90
1996;DHT22;38556;47.068;15.408;2022-12-29T05:45:41;1.20;99.90
1996;DHT22;38556;47.068;15.408;2022-12-29T05:48:09;1.20;99.90
1996;DHT22;38556;47.068;15.408;2022-12-29T05:50:36;1.20;99.90
1996;DHT22;38556;47.068;15.408;2022-12-29T05:53:05;1.10;99.90
1996;DHT22;38556;47.068;15.408;2022-12-29T05:55:32;1.20;99.90
1996;DHT22;38556;47.068;15.408;2022-12-29T05:58:00;1.20;99.90
1996;DHT22;38556;47.068;15.408;2022-12-29T06:00:27;1.20;99.90
1996;DHT22;38556;47.068;15.408;2022-12-29T06:02:54;1.30;99.90
1996;DHT22;38556;47.068;15.408;2022-12-29T06:05:22;1.20;99.90
1996;DHT22;38556;47.068;15.408;2022-12-29T06:07:49;1.40;99.90
1996;DHT22;38556;47.068;15.408;2022-12-29T06:10:18;1.40;99.90
1996;DHT22;38556;47.068;15.408;2022-12-29T06:12:45;1.40;99.90
1996;DHT22;38556;47.068;15.408;2022-12-29T06:15:14;1.40;99.90
1996;DHT22;38556;47.068;15.408;2022-12-29T06:17:41;1.40;99.90
1996;DHT22;38556;47.068;15.408;2022-12-29T06:20:09;1.40;99.90
1996;DHT22;38556;47.068;15.408;2022-12-29T06:22:37;1.40;99.90
1996;DHT22;38556;47.068;15.408;2022-12-29T06:25:04;1.50;99.90
1996;DHT22;38556;47.068;15.408;2022-12-29T06:27:33;1.50;99.90
1996;DHT22;38556;47.068;15.408;2022-12-29T06:30:01;1.40;99.90
1996;DHT22;38556;47.068;15.408;2022-12-29T06:32:28;1.50;99.90
1996;DHT22;38556;47.068;15.408;2022-12-29T06:34:56;1.50;99.90
1996;DHT22;38556;47.068;15.408;2022-12-29T06:37:23;1.50;99.90
1996;DHT22;38556;47.068;15.408;2022-12-29T06:39:50;1.50;99.90
1996;DHT22;38556;47.068;15.408;2022-12-29T06:42:17;1.40;99.90
1996;DHT22;38556;47.068;15.408;2022-12-29T06:44:46;1.40;99.90
1996;DHT22;38556;47.068;15.408;2022-12-29T06:47:14;1.40;99.90
1996;DHT22;38556;47.068;15.408;2022-12-29T06:49:41;1.40;99.90
1996;DHT22;38556;47.068;15.408;2022-12-29T06:52:09;1.40;99.90
1996;DHT22;38556;47.068;15.408;2022-12-29T06:54:36;1.00;99.90
1996;DHT22;38556;47.068;15.408;2022-12-29T06:57:04;1.10;99.90
1996;DHT22;38556;47.068;15.408;2022-12-29T06:59:31;1.10;99.90
1996;DHT22;38556;47.068;15.408;2022-12-29T07:01:59;1.20;99.90
1996;DHT22;38556;47.068;15.408;2022-12-29T07:04:28;1.20;99.90
1996;DHT22;38556;47.068;15.408;2022-12-29T07:06:55;1.30;99.90
1996;DHT22;38556;47.068;15.408;2022-12-29T07:09:22;1.30;99.90
1996;DHT22;38556;47.068;15.408;2022-12-29T07:11:50;1.30;99.90
1996;DHT22;38556;47.068;15.408;2022-12-29T07:14:17;1.30;99.90
1996;DHT22;38556;47.068;15.408;2022-12-29T07:16:44;1.30;99.90
1996;DHT22;38556;47.068;15.408;2022-12-29T07:19:13;1.30;99.90
1996;DHT22;38556;47.068;15.408;2022-12-29T07:21:40;1.30;99.90
1996;DHT22;38556;47.068;15.408;2022-12-29T07:24:08;1.30;99.90
1996;DHT22;38556;47.068;15.408;2022-12-29T07:26:36;1.30;99.90
1996;DHT22;38556;47.068;15.408;2022-12-29T07:29:03;1.20;99.90
1996;DHT22;38556;47.068;15.408;2022-12-29T07:31:31;1.40;99.90
1996;DHT22;38556;47.068;15.408;2022-12-29T07:33:58;1.30;99.90
1996;DHT22;38556;47.068;15.408;2022-12-29T07:36:27;1.40;99.90
1996;DHT22;38556;47.068;15.408;2022-12-29T07:38:54;1.40;99.90
1996;DHT22;38556;47.068;15.408;2022-12-29T07:41:22;1.40;99.90
1996;DHT22;38556;47.068;15.408;2022-12-29T07:43:49;1.40;99.90
1996;DHT22;38556;47.068;15.408;2022-12-29T07:46:16;1.50;99.90
1996;DHT22;38556;47.068;15.408;2022-12-29T07:48:44;1.30;99.90
1996;DHT22;38556;47.068;15.408;2022-12-29T07:51:11;1.30;99.90
1996;DHT22;38556;47.068;15.408;2022-12-29T07:53:40;1.40;99.90
1996;DHT22;38556;47.068;15.408;2022-12-29T07:56:07;1.50;99.90
1996;DHT22;38556;47.068;15.408;2022-12-29T07:58:34;1.50;99.90
1996;DHT22;38556;47.068;15.408;2022-12-29T08:01:01;1.60;99.90
1996;DHT22;38556;47.068;15.408;2022-12-29T08:03:28;1.60;99.90
1996;DHT22;38556;47.068;15.408;2022-12-29T08:05:56;1.70;99.90
1996;DHT22;38556;47.068;15.408;2022-12-29T08:08:24;1.70;99.90
1996;DHT22;38556;47.068;15.408;2022-12-29T08:10:52;1.70;99.90
1996;DHT22;38556;47.068;15.408;2022-12-29T08:13:19;1.70;99.90
1996;DHT22;38556;47.068;15.408;2022-12-29T08:15:47;1.80;99.90
1996;DHT22;38556;47.068;15.408;2022-12-29T08:18:14;1.90;99.90
1996;DHT22;38556;47.068;15.408;2022-12-29T08:20:42;1.90;99.90
1996;DHT22;38556;47.068;15.408;2022-12-29T08:23:09;2.00;99.90
1996;DHT22;38556;47.068;15.408;2022-12-29T08:25:36;1.90;99.90
1996;DHT22;38556;47.068;15.408;2022-12-29T08:28:05;1.80;99.90
1996;DHT22;38556;47.068;15.408;2022-12-29T08:30:32;1.90;99.90
1996;DHT22;38556;47.068;15.408;2022-12-29T08:33:00;2.00;99.90
1996;DHT22;38556;47.068;15.408;2022-12-29T08:35:27;2.10;99.90
1996;DHT22;38556;47.068;15.408;2022-12-29T08:37:54;2.10;99.90
1996;DHT22;38556;47.068;15.408;2022-12-29T08:40:22;2.20;99.90
1996;DHT22;38556;47.068;15.408;2022-12-29T08:42:50;2.20;99.90
1996;DHT22;38556;47.068;15.408;2022-12-29T08:45:19;2.40;99.90
1996;DHT22;38556;47.068;15.408;2022-12-29T08:47:46;2.50;99.90
1996;DHT22;38556;47.068;15.408;2022-12-29T08:50:13;2.60;99.90
1996;DHT22;38556;47.068;15.408;2022-12-29T08:52:40;2.70;99.90
1996;DHT22;38556;47.068;15.408;2022-12-29T08:55:08;2.80;99.90
1996;DHT22;38556;47.068;15.408;2022-12-29T08:57:35;2.90;99.90
1996;DHT22;38556;47.068;15.408;2022-12-29T09:00:04;2.90;99.90
1996;DHT22;38556;47.068;15.408;2022-12-29T09:02:33;2.90;99.90
1996;DHT22;38556;47.068;15.408;2022-12-29T09:05:00;2.90;99.90
1996;DHT22;38556;47.068;15.408;2022-12-29T09:07:27;2.90;99.90
1996;DHT22;38556;47.068;15.408;2022-12-29T09:09:54;3.00;99.90
1996;DHT22;38556;47.068;15.408;2022-12-29T09:12:21;3.00;99.90
1996;DHT22;38556;47.068;15.408;2022-12-29T09:14:49;3.00;99.90
1996;DHT22;38556;47.068;15.408;2022-12-29T09:17:16;2.90;99.90
1996;DHT22;38556;47.068;15.408;2022-12-29T09:20:03;2.90;99.90
1996;DHT22;38556;47.068;15.408;2022-12-29T09:22:31;3.10;99.90
1996;DHT22;38556;47.068;15.408;2022-12-29T09:24:58;3.10;99.90
1996;DHT22;38556;47.068;15.408;2022-12-29T09:27:26;3.30;99.90
1996;DHT22;38556;47.068;15.408;2022-12-29T09:29:53;3.60;99.90
1996;DHT22;38556;47.068;15.408;2022-12-29T09:32:20;3.50;99.90
1996;DHT22;38556;47.068;15.408;2022-12-29T09:34:48;3.60;99.90
1996;DHT22;38556;47.068;15.408;2022-12-29T09:37:17;3.80;99.90
1996;DHT22;38556;47.068;15.408;2022-12-29T09:39:44;4.00;99.90
1996;DHT22;38556;47.068;15.408;2022-12-29T09:42:16;4.00;99.90
1996;DHT22;38556;47.068;15.408;2022-12-29T09:44:56;4.20;99.90
1996;DHT22;38556;47.068;15.408;2022-12-29T09:47:26;4.30;99.90
1996;DHT22;38556;47.068;15.408;2022-12-29T09:49:58;4.40;99.90
1996;DHT22;38556;47.068;15.408;2022-12-29T09:52:31;4.40;99.90
1996;DHT22;38556;47.068;15.408;2022-12-29T09:55:03;4.50;99.90
1996;DHT22;38556;47.068;15.408;2022-12-29T09:57:35;4.60;99.90
1996;DHT22;38556;47.068;15.408;2022-12-29T10:00:09;4.70;99.90
1996;DHT22;38556;47.068;15.408;2022-12-29T10:02:39;4.80;99.90
1996;DHT22;38556;47.068;15.408;2022-12-29T10:05:19;4.80;99.90
1996;DHT22;38556;47.068;15.408;2022-12-29T10:07:59;4.80;99.90
1996;DHT22;38556;47.068;15.408;2022-12-29T10:10:35;4.90;99.90
1996;DHT22;38556;47.068;15.408;2022-12-29T10:13:18;5.00;99.90
1996;DHT22;38556;47.068;15.408;2022-12-29T10:15:53;5.00;99.90
1996;DHT22;38556;47.068;15.408;2022-12-29T10:18:37;5.10;99.90
1996;DHT22;38556;47.068;15.408;2022-12-29T10:21:12;5.20;99.90
1996;DHT22;38556;47.068;15.408;2022-12-29T10:23:45;5.30;99.90
1996;DHT22;38556;47.068;15.408;2022-12-29T10:26:17;5.40;99.90
1996;DHT22;38556;47.068;15.408;2022-12-29T10:28:49;5.60;99.90
1996;DHT22;38556;47.068;15.408;2022-12-29T10:31:23;5.80;99.90
1996;DHT22;38556;47.068;15.408;2022-12-29T10:33:56;5.80;99.90
1996;DHT22;38556;47.068;15.408;2022-12-29T10:36:28;5.90;99.90
1996;DHT22;38556;47.068;15.408;2022-12-29T10:39:05;6.00;99.90
1996;DHT22;38556;47.068;15.408;2022-12-29T10:41:38;6.20;99.90
1996;DHT22;38556;47.068;15.408;2022-12-29T10:44:09;6.20;99.90
1996;DHT22;38556;47.068;15.408;2022-12-29T10:46:38;6.30;99.90
1996;DHT22;38556;47.068;15.408;2022-12-29T10:49:06;6.40;99.90
1996;DHT22;38556;47.068;15.408;2022-12-29T10:51:42;6.40;99.90
1996;DHT22;38556;47.068;15.408;2022-12-29T10:54:16;6.50;99.90
1996;DHT22;38556;47.068;15.408;2022-12-29T10:56:49;6.50;99.90
1996;DHT22;38556;47.068;15.408;2022-12-29T10:59:21;6.60;99.90
1996;DHT22;38556;47.068;15.408;2022-12-29T11:01:55;6.60;99.90
1996;DHT22;38556;47.068;15.408;2022-12-29T11:04:39;6.60;99.90
1996;DHT22;38556;47.068;15.408;2022-12-29T11:07:10;6.50;99.90
1996;DHT22;38556;47.068;15.408;2022-12-29T11:09:40;6.50;99.90
1996;DHT22;38556;47.068;15.408;2022-12-29T11:12:22;6.60;99.90
1996;DHT22;38556;47.068;15.408;2022-12-29T11:15:05;6.60;99.90
1996;DHT22;38556;47.068;15.408;2022-12-29T11:17:45;6.70;99.90
1996;DHT22;38556;47.068;15.408;2022-12-29T11:20:31;6.70;99.90
1996;DHT22;38556;47.068;15.408;2022-12-29T11:22:59;6.90;99.90
1996;DHT22;38556;47.068;15.408;2022-12-29T11:25:28;7.00;99.90
1996;DHT22;38556;47.068;15.408;2022-12-29T11:27:57;7.00;99.90
1996;DHT22;38556;47.068;15.408;2022-12-29T11:30:27;7.10;99.90
1996;DHT22;38556;47.068;15.408;2022-12-29T11:32:55;7.20;99.90
1996;DHT22;38556;47.068;15.408;2022-12-29T11:35:34;7.30;99.90
1996;DHT22;38556;47.068;15.408;2022-12-29T11:38:03;7.40;99.90
1996;DHT22;38556;47.068;15.408;2022-12-29T11:40:38;7.40;99.90
1996;DHT22;38556;47.068;15.408;2022-12-29T11:43:06;7.40;99.90
1996;DHT22;38556;47.068;15.408;2022-12-29T11:45:35;7.50;99.90
1996;DHT22;38556;47.068;15.408;2022-12-29T11:48:07;7.60;99.90
1996;DHT22;38556;47.068;15.408;2022-12-29T11:50:39;7.60;99.90
1996;DHT22;38556;47.068;15.408;2022-12-29T11:53:15;7.70;99.90
1996;DHT22;38556;47.068;15.408;2022-12-29T11:55:52;8.00;99.90
1996;DHT22;38556;47.068;15.408;2022-12-29T11:58:21;8.00;99.90
1996;DHT22;38556;47.068;15.408;2022-12-29T12:00:55;8.20;99.90
1996;DHT22;38556;47.068;15.408;2022-12-29T12:03:25;8.10;99.90
1996;DHT22;38556;47.068;15.408;2022-12-29T12:05:56;8.30;99.90
1996;DHT22;38556;47.068;15.408;2022-12-29T12:08:33;8.50;99.90
1996;DHT22;38556;47.068;15.408;2022-12-29T12:11:08;8.60;99.90
1996;DHT22;38556;47.068;15.408;2022-12-29T12:13:43;8.70;99.90
1996;DHT22;38556;47.068;15.408;2022-12-29T12:16:17;8.70;99.90
1996;DHT22;38556;47.068;15.408;2022-12-29T12:18:47;9.00;99.90
1996;DHT22;38556;47.068;15.408;2022-12-29T12:21:23;9.00;99.90
1996;DHT22;38556;47.068;15.408;2022-12-29T12:24:02;9.10;99.90
1996;DHT22;38556;47.068;15.408;2022-12-29T12:26:39;9.30;99.90
1996;DHT22;38556;47.068;15.408;2022-12-29T12:29:12;9.30;99.90
1996;DHT22;38556;47.068;15.408;2022-12-29T12:31:45;9.50;99.90
1996;DHT22;38556;47.068;15.408;2022-12-29T12:34:17;9.60;99.90
1996;DHT22;38556;47.068;15.408;2022-12-29T12:39:43;9.80;99.90
1996;DHT22;38556;47.068;15.408;2022-12-29T12:42:25;9.80;99.90
1996;DHT22;38556;47.068;15.408;2022-12-29T12:45:07;10.00;99.90
1996;DHT22;38556;47.068;15.408;2022-12-29T12:47:48;10.20;99.90
1996;DHT22;38556;47.068;15.408;2022-12-29T12:50:30;10.30;99.90
1996;DHT22;38556;47.068;15.408;2022-12-29T12:56:09;10.50;99.80
1996;DHT22;38556;47.068;15.408;2022-12-29T12:58:45;10.80;99.10
1996;DHT22;38556;47.068;15.408;2022-12-29T13:01:32;10.70;99.40
1996;DHT22;38556;47.068;15.408;2022-12-29T13:04:20;10.80;98.10
1996;DHT22;38556;47.068;15.408;2022-12-29T13:06:58;10.90;97.80
1996;DHT22;38556;47.068;15.408;2022-12-29T13:09:44;11.00;97.80
1996;DHT22;38556;47.068;15.408;2022-12-29T13:12:24;11.10;97.20
1996;DHT22;38556;47.068;15.408;2022-12-29T13:15:10;11.20;96.40
1996;DHT22;38556;47.068;15.408;2022-12-29T13:17:42;11.40;95.90
1996;DHT22;38556;47.068;15.408;2022-12-29T13:20:20;11.50;96.10
1996;DHT22;38556;47.068;15.408;2022-12-29T13:22:55;11.70;95.70
1996;DHT22;38556;47.068;15.408;2022-12-29T13:25:30;11.70;96.00
1996;DHT22;38556;47.068;15.408;2022-12-29T13:28:04;12.00;95.60
1996;DHT22;38556;47.068;15.408;2022-12-29T13:30:38;12.10;95.80
1996;DHT22;38556;47.068;15.408;2022-12-29T13:33:15;12.30;95.90
1996;DHT22;38556;47.068;15.408;2022-12-29T13:35:54;12.50;95.90
1996;DHT22;38556;47.068;15.408;2022-12-29T13:38:25;12.60;94.90
1996;DHT22;38556;47.068;15.408;2022-12-29T13:40:58;12.70;95.10
1996;DHT22;38556;47.068;15.408;2022-12-29T13:43:30;12.80;95.30
1996;DHT22;38556;47.068;15.408;2022-12-29T13:46:04;12.90;94.20
1996;DHT22;38556;47.068;15.408;2022-12-29T13:48:37;12.90;93.70
1996;DHT22;38556;47.068;15.408;2022-12-29T13:51:08;13.10;94.10
1996;DHT22;38556;47.068;15.408;2022-12-29T13:53:42;13.20;94.00
1996;DHT22;38556;47.068;15.408;2022-12-29T13:56:19;13.30;93.30
1996;DHT22;38556;47.068;15.408;2022-12-29T14:01:27;13.50;93.90
1996;DHT22;38556;47.068;15.408;2022-12-29T14:03:57;13.70;93.90
1996;DHT22;38556;47.068;15.408;2022-12-29T14:06:26;13.70;92.90
1996;DHT22;38556;47.068;15.408;2022-12-29T14:08:56;13.80;92.60
1996;DHT22;38556;47.068;15.408;2022-12-29T14:11:30;13.90;92.60
1996;DHT22;38556;47.068;15.408;2022-12-29T14:13:58;14.30;92.10
1996;DHT22;38556;47.068;15.408;2022-12-29T14:16:32;14.30;92.30
1996;DHT22;38556;47.068;15.408;2022-12-29T14:19:09;14.60;91.90
1996;DHT22;38556;47.068;15.408;2022-12-29T14:21:37;15.30;91.80
1996;DHT22;38556;47.068;15.408;2022-12-29T14:24:32;16.70;90.40
1996;DHT22;38556;47.068;15.408;2022-12-29T14:30:46;19.60;83.70
1996;DHT22;38556;47.068;15.408;2022-12-29T14:33:15;20.90;74.30
1996;DHT22;38556;47.068;15.408;2022-12-29T14:35:45;20.90;74.60
1996;DHT22;38556;47.068;15.408;2022-12-29T14:38:18;21.50;73.40
1996;DHT22;38556;47.068;15.408;2022-12-29T14:40:46;21.60;71.50
1996;DHT22;38556;47.068;15.408;2022-12-29T14:43:20;21.40;71.00
1996;DHT22;38556;47.068;15.408;2022-12-29T14:45:57;20.40;70.10
1996;DHT22;38556;47.068;15.408;2022-12-29T14:48:39;19.10;70.90
1996;DHT22;38556;47.068;15.408;2022-12-29T14:51:30;18.50;71.90
1996;DHT22;38556;47.068;15.408;2022-12-29T14:53:59;17.70;73.80
1996;DHT22;38556;47.068;15.408;2022-12-29T14:56:28;17.10;75.10
1996;DHT22;38556;47.068;15.408;2022-12-29T14:59:00;16.50;74.50
1996;DHT22;38556;47.068;15.408;2022-12-29T15:01:38;15.90;75.80
1996;DHT22;38556;47.068;15.408;2022-12-29T15:04:15;15.60;76.80
1996;DHT22;38556;47.068;15.408;2022-12-29T15:06:44;15.20;77.70
1996;DHT22;38556;47.068;15.408;2022-12-29T15:09:20;14.80;78.40
1996;DHT22;38556;47.068;15.408;2022-12-29T15:11:52;14.50;79.00
1996;DHT22;38556;47.068;15.408;2022-12-29T15:14:35;14.20;79.40
1996;DHT22;38556;47.068;15.408;2022-12-29T15:17:21;13.60;79.70
1996;DHT22;38556;47.068;15.408;2022-12-29T15:19:50;13.60;80.40
1996;DHT22;38556;47.068;15.408;2022-12-29T15:22:18;12.90;80.20
1996;DHT22;38556;47.068;15.408;2022-12-29T15:24:45;12.20;81.80
1996;DHT22;38556;47.068;15.408;2022-12-29T15:27:15;11.90;82.30
1996;DHT22;38556;47.068;15.408;2022-12-29T15:29:44;11.90;82.90
1996;DHT22;38556;47.068;15.408;2022-12-29T15:32:18;11.40;83.40
1996;DHT22;38556;47.068;15.408;2022-12-29T15:34:48;11.40;84.20
1996;DHT22;38556;47.068;15.408;2022-12-29T15:37:22;11.10;84.20
1996;DHT22;38556;47.068;15.408;2022-12-29T15:39:51;11.10;85.10
1996;DHT22;38556;47.068;15.408;2022-12-29T15:45:14;10.70;86.30
1996;DHT22;38556;47.068;15.408;2022-12-29T15:47:44;10.50;86.50
1996;DHT22;38556;47.068;15.408;2022-12-29T15:50:21;10.40;87.40
1996;DHT22;38556;47.068;15.408;2022-12-29T15:52:51;10.30;87.60
1996;DHT22;38556;47.068;15.408;2022-12-29T15:55:21;9.90;90.00
1996;DHT22;38556;47.068;15.408;2022-12-29T15:57:56;9.80;90.20
1996;DHT22;38556;47.068;15.408;2022-12-29T16:00:25;9.70;90.60
1996;DHT22;38556;47.068;15.408;2022-12-29T16:02:55;9.50;90.90
1996;DHT22;38556;47.068;15.408;2022-12-29T16:05:23;9.30;91.10
1996;DHT22;38556;47.068;15.408;2022-12-29T16:07:54;9.20;91.40
1996;DHT22;38556;47.068;15.408;2022-12-29T16:10:35;9.10;91.50
1996;DHT22;38556;47.068;15.408;2022-12-29T16:13:06;9.10;91.70
1996;DHT22;38556;47.068;15.408;2022-12-29T16:15:40;9.00;91.80
1996;DHT22;38556;47.068;15.408;2022-12-29T16:18:20;8.90;91.70
1996;DHT22;38556;47.068;15.408;2022-12-29T16:20:48;8.90;91.70
1996;DHT22;38556;47.068;15.408;2022-12-29T16:23:20;8.80;91.90
1996;DHT22;38556;47.068;15.408;2022-12-29T16:25:49;8.70;92.10
1996;DHT22;38556;47.068;15.408;2022-12-29T16:28:20;8.60;92.20